Map

Track Data

SID SEASON NUMBER BASIN SUBBASIN NAME ISO_TIME NATURE LAT LON WMO_WIND WMO_PRES WMO_AGENCY TRACK_TYPE DIST2LAND LANDFALL IFLAG USA_AGENCY USA_ATCF_ID USA_LAT USA_LON USA_RECORD USA_STATUS USA_WIND USA_PRES USA_SSHS USA_R34_NE USA_R34_SE USA_R34_SW USA_R34_NW USA_R50_NE USA_R50_SE USA_R50_SW USA_R50_NW USA_R64_NE USA_R64_SE USA_R64_SW USA_R64_NW USA_POCI USA_ROCI USA_RMW USA_EYE TOKYO_LAT TOKYO_LON TOKYO_GRADE TOKYO_WIND TOKYO_PRES TOKYO_R50_DIR TOKYO_R50_LONG TOKYO_R50_SHORT TOKYO_R30_DIR TOKYO_R30_LONG TOKYO_R30_SHORT TOKYO_LAND CMA_LAT CMA_LON CMA_CAT CMA_WIND CMA_PRES HKO_LAT HKO_LON HKO_CAT HKO_WIND HKO_PRES NEWDELHI_LAT NEWDELHI_LON NEWDELHI_GRADE NEWDELHI_WIND NEWDELHI_PRES NEWDELHI_CI NEWDELHI_DP NEWDELHI_POCI REUNION_LAT REUNION_LON REUNION_TYPE REUNION_WIND REUNION_PRES REUNION_TNUM REUNION_CI REUNION_RMW REUNION_R34_NE REUNION_R34_SE REUNION_R34_SW REUNION_R34_NW REUNION_R50_NE REUNION_R50_SE REUNION_R50_SW REUNION_R50_NW REUNION_R64_NE REUNION_R64_SE REUNION_R64_SW REUNION_R64_NW BOM_LAT BOM_LON BOM_TYPE BOM_WIND BOM_PRES BOM_TNUM BOM_CI BOM_RMW BOM_R34_NE BOM_R34_SE BOM_R34_SW BOM_R34_NW BOM_R50_NE BOM_R50_SE BOM_R50_SW BOM_R50_NW BOM_R64_NE BOM_R64_SE BOM_R64_SW BOM_R64_NW BOM_ROCI BOM_POCI BOM_EYE BOM_POS_METHOD BOM_PRES_METHOD NADI_LAT NADI_LON NADI_CAT NADI_WIND NADI_PRES WELLINGTON_LAT WELLINGTON_LON WELLINGTON_WIND WELLINGTON_PRES DS824_LAT DS824_LON DS824_STAGE DS824_WIND DS824_PRES TD9636_LAT TD9636_LON TD9636_STAGE TD9636_WIND TD9636_PRES TD9635_LAT TD9635_LON TD9635_WIND TD9635_PRES TD9635_ROCI NEUMANN_LAT NEUMANN_LON NEUMANN_CLASS NEUMANN_WIND NEUMANN_PRES MLC_LAT MLC_LON MLC_CLASS MLC_WIND MLC_PRES USA_GUST BOM_GUST BOM_GUST_PER REUNION_GUST REUNION_GUST_PER USA_SEAHGT USA_SEARAD_NE USA_SEARAD_SE USA_SEARAD_SW USA_SEARAD_NW STORM_SPEED STORM_DIR
1951221N10136 1951 55 WP MM NOT_NAMED 1951-08-09 00:00:00 TS 10.0000 136.000 1006 tokyo main 1065 992 _OO___________ -1 10.0000 136.000 2 1006 0 0 0 10.0000 136.000 0 1006 18 299
1951221N10136 1951 55 WP MM NOT_NAMED 1951-08-09 03:00:00 TS 10.4306 135.197 main 992 931 _PP___________ -1 10.4231 135.195 2 1005 0 0 10.4381 135.198 0 1005 18 304
1951221N10136 1951 55 WP MM NOT_NAMED 1951-08-09 06:00:00 TS 11.0000 134.500 1004 tokyo main 931 898 _OO___________ -1 11.0000 134.500 2 1004 0 0 0 11.0000 134.500 1 29 1004 18 318
1951221N10136 1951 55 WP MM NOT_NAMED 1951-08-09 09:00:00 TS 11.7784 133.974 main 898 844 _PP___________ -1 11.8071 133.977 2 1002 0 0 11.7496 133.970 1 33 1002 19 325
1951221N10136 1951 55 WP MM NOT_NAMED 1951-08-09 12:00:00 TS 12.5778 133.378 1000 tokyo main 846 797 _OO_______O___ -1 12.6000 133.500 2 1000 0 0 0 12.5000 133.500 2 38 1000 12.8000 132.400 7 17 318
1951221N10136 1951 55 WP MM NOT_NAMED 1951-08-09 15:00:00 TS 13.0811 132.792 main 797 749 _PP_______P___ -1 13.1324 132.922 2 997 0 0 13.0597 132.980 2 38 997 13.0212 132.157 7 14 307
1951221N10136 1951 55 WP MM NOT_NAMED 1951-08-09 18:00:00 TS 13.4274 132.219 995 tokyo main 739 682 _OO_______P___ -1 13.5000 132.300 2 995 0 0 0 13.5000 132.400 2 38 995 13.2339 131.870 7 13 298
1951221N10136 1951 55 WP MM NOT_NAMED 1951-08-09 21:00:00 TS 13.6992 131.609 main 682 625 _PP_______P___ -1 13.7725 131.635 2 993 0 0 13.8952 131.693 2 43 992 13.4298 131.499 7 13 293
1951221N10136 1951 55 WP MM NOT_NAMED 1951-08-10 00:00:00 TS 13.9333 131.000 991 tokyo main 625 581 _OO_______O___ -1 14.0000 131.000 9 991 0 0 0 14.2000 131.000 3 48 990 13.6000 131.000 7 12 292
1951221N10136 1951 55 WP MM NOT_NAMED 1951-08-10 03:00:00 TS 14.1568 130.432 main 576 531 _PP_______P___ -1 14.3072 130.477 9 990 0 0 14.4222 130.470 3 48 990 13.7410 130.348 7 12 291
1951221N10136 1951 55 WP MM NOT_NAMED 1951-08-10 06:00:00 TS 14.3571 129.863 989 tokyo main 536 485 _OO_______P___ -1 14.6000 130.000 9 989 0 0 0 14.6000 130.000 3 48 990 13.8714 129.589 7 12 289
1951221N10136 1951 55 WP MM NOT_NAMED 1951-08-10 09:00:00 TS 14.5409 129.282 main 485 445 _PP_______P___ -1 14.8147 129.530 9 990 0 0 14.7922 129.530 3 48 990 14.0159 128.785 7 12 288
1951221N10136 1951 55 WP MM NOT_NAMED 1951-08-10 12:00:00 TS 14.7333 128.667 991 tokyo main 445 403 _OO_______O___ -1 15.0000 129.000 9 991 0 0 0 15.0000 129.000 3 48 990 14.2000 128.000 7 13 288
1951221N10136 1951 55 WP MM NOT_NAMED 1951-08-10 15:00:00 TS 14.9502 128.006 main 406 344 _PP_______P___ -1 15.1849 128.345 9 993 0 0 15.2424 128.345 3 48 992 14.4233 127.328 7 14 289
1951221N10136 1951 55 WP MM NOT_NAMED 1951-08-10 18:00:00 TS 15.1979 127.294 995 tokyo main 344 290 _OO_______P___ -1 15.4000 127.600 9 995 0 0 0 15.5000 127.600 3 48 995 14.6936 126.683 7 15 290
1951221N10136 1951 55 WP MM NOT_NAMED 1951-08-10 21:00:00 TS 15.4589 126.566 main 296 256 _PP_______P___ -1 15.6323 126.822 9 996 0 0 15.7272 126.829 3 43 996 15.0171 126.047 7 16 293
1951221N10136 1951 55 WP MM NOT_NAMED 1951-08-11 00:00:00 TS 15.8000 125.800 997 tokyo main 258 248 _OO_______O___ -1 16.0000 126.000 2 997 0 0 0 16.0000 126.000 2 38 997 15.4000 125.400 2 17 298
1951221N10136 1951 55 WP MM NOT_NAMED 1951-08-11 03:00:00 TS 16.2722 124.981 main 268 181 _PP_______P___ -1 16.6200 125.136 2 998 0 0 16.3625 125.100 2 38 998 15.8342 124.706 2 19 303
1951221N10136 1951 55 WP MM NOT_NAMED 1951-08-11 06:00:00 TS 16.8083 124.167 999 tokyo main 181 111 _OO_______P___ -1 17.3000 124.300 2 999 0 0 0 16.8000 124.200 2 38 999 16.3248 124.000 2 18 305
1951221N10136 1951 55 WP MM NOT_NAMED 1951-08-11 09:00:00 TS 17.3222 123.431 main 101 61 _PP_______P___ -1 17.8440 123.614 2 999 0 0 17.2695 123.384 2 38 999 16.8529 123.293 2 17 306
1951221N10136 1951 55 WP MM NOT_NAMED 1951-08-11 12:00:00 TS 17.8333 122.700 999 tokyo main 62 0 _OO_______O___ -1 18.3000 122.900 2 999 0 0 0 17.8000 122.600 2 38 999 17.4000 122.600 2 18 304
1951221N10136 1951 55 WP MM NOT_NAMED 1951-08-11 15:00:00 TS 18.3371 121.852 main 0 0 _PP_______P___ -1 18.6509 121.920 2 999 0 0 18.4002 121.755 2 38 999 17.9601 121.880 2 19 303
1951221N10136 1951 55 WP MM NOT_NAMED 1951-08-11 18:00:00 TS 18.8435 121.061 999 tokyo main 30 30 _OO_______P___ -1 19.0000 121.000 2 999 0 0 0 19.0000 121.000 2 38 999 18.5305 121.182 2 17 308
1951221N10136 1951 55 WP MM NOT_NAMED 1951-08-11 21:00:00 TS 19.3840 120.437 main 98 98 _PP_______P___ -1 19.5145 120.373 2 999 0 0 19.5522 120.395 2 38 999 19.0854 120.542 2 14 316
1951221N10136 1951 55 WP MM NOT_NAMED 1951-08-12 00:00:00 TS 19.8667 120.000 999 tokyo main 167 167 _OO_______O___ -1 20.0000 120.000 2 999 0 0 0 20.0000 120.000 2 38 999 19.6000 120.000 2 11 322
1951221N10136 1951 55 WP MM NOT_NAMED 1951-08-12 03:00:00 TS 20.2118 119.743 main 212 193 _PP_______P___ -1 20.2947 119.832 2 998 0 0 20.2947 119.832 2 38 998 20.0460 119.565 2 7 329
1951221N10136 1951 55 WP MM NOT_NAMED 1951-08-12 06:00:00 TS 20.4837 119.611 998 tokyo main 193 182 _OO_______P___ -1 20.5000 119.800 2 998 0 0 0 20.5000 119.800 2 38 998 20.4511 119.233 2 6 336
1951221N10136 1951 55 WP MM NOT_NAMED 1951-08-12 09:00:00 TS 20.7486 119.487 main 182 167 _PP_______P___ -1 20.7075 119.735 2 997 0 0 20.7075 119.742 2 38 997 20.8307 118.985 2 6 339
1951221N10136 1951 55 WP MM NOT_NAMED 1951-08-12 12:00:00 TS 21.0000 119.400 997 tokyo main 167 155 _OO_______O___ -1 20.9000 119.700 2 997 0 0 0 20.9000 119.700 2 38 997 21.2000 118.800 2 5 344
1951221N10136 1951 55 WP MM NOT_NAMED 1951-08-12 15:00:00 TS 21.2705 119.328 main 159 151 _PP_______P___ -1 21.0925 119.707 2 996 0 0 21.0925 119.650 2 38 996 21.6265 118.626 2 6 348
1951221N10136 1951 55 WP MM NOT_NAMED 1951-08-12 18:00:00 TS 21.5465 119.270 995 tokyo main 151 137 _OO_______P___ -1 21.3000 119.700 2 995 0 0 0 21.3000 119.600 2 38 995 22.0396 118.509 2 6 348
1951221N10136 1951 55 WP MM NOT_NAMED 1951-08-12 21:00:00 TS 21.8310 119.201 main 137 126 _PP_______P___ -1 21.5500 119.615 2 994 0 0 21.5350 119.550 2 43 992 22.4079 118.438 2 6 347
1951221N10136 1951 55 WP MM NOT_NAMED 1951-08-13 00:00:00 TS 22.1000 119.133 993 tokyo main 131 125 _OO_______O___ -1 21.8000 119.500 2 993 0 0 0 21.8000 119.500 3 48 990 22.7000 118.400 7 5 346
1951221N10136 1951 55 WP MM NOT_NAMED 1951-08-13 03:00:00 TS 22.3302 119.063 main 125 121 _PP_______P___ -1 22.0150 119.385 2 992 0 0 22.0925 119.443 3 48 989 22.8831 118.363 7 4 346
1951221N10136 1951 55 WP MM NOT_NAMED 1951-08-13 06:00:00 TS 22.5300 119.018 992 tokyo main 127 121 _OO_______P___ -1 22.2000 119.300 2 992 0 0 0 22.4000 119.400 3 48 988 22.9899 118.355 7 4 354
1951221N10136 1951 55 WP MM NOT_NAMED 1951-08-13 09:00:00 TS 22.7056 119.030 main 121 114 _PP_______P___ -1 22.3650 119.307 2 991 0 0 22.7000 119.415 3 48 988 23.0518 118.369 7 3 0
1951221N10136 1951 55 WP MM NOT_NAMED 1951-08-13 12:00:00 TS 22.8667 119.033 990 tokyo main 114 113 _OO_______O___ -1 22.5000 119.300 2 990 0 0 0 23.0000 119.400 3 48 988 23.1000 118.400 7 3 351
1951221N10136 1951 55 WP MM NOT_NAMED 1951-08-13 15:00:00 TS 23.0274 118.970 main 113 112 _PP_______P___ -1 22.6000 119.165 2 990 0 0 23.3224 119.303 3 48 988 23.1597 118.441 7 3 338
1951221N10136 1951 55 WP MM NOT_NAMED 1951-08-13 18:00:00 TS 23.1725 118.897 990 tokyo main 122 120 _OO_______P___ -1 22.7000 119.000 2 990 0 0 0 23.6000 119.100 3 48 988 23.2325 118.490 7 3 330
1951221N10136 1951 55 WP MM NOT_NAMED 1951-08-13 21:00:00 TS 23.3208 118.784 main 120 97 _PP_______P___ -1 22.8424 118.922 2 990 0 0 23.8027 118.765 3 48 988 23.3141 118.544 7 4 315
1951221N10136 1951 55 WP MM NOT_NAMED 1951-08-14 00:00:00 TS 23.4444 118.600 991 tokyo main 97 67 _OO_______O___ -1 23.0000 118.800 2 991 0 0 0 23.9000 118.400 3 48 988 23.4000 118.600 7 5 297
1951221N10136 1951 55 WP MM NOT_NAMED 1951-08-14 03:00:00 TS 23.5337 118.329 main 67 45 _PP___________ -1 23.1801 118.530 2 991 0 0 23.8874 118.127 3 48 988 7 5 282
1951221N10136 1951 55 WP MM NOT_NAMED 1951-08-14 06:00:00 TS 23.5500 118.050 992 tokyo main 45 30 _OO___________ -1 23.3000 118.200 2 992 0 0 0 23.8000 117.900 3 48 988 7 5 267
1951221N10136 1951 55 WP MM NOT_NAMED 1951-08-14 09:00:00 TS 23.5124 117.804 main 30 24 _PP___________ -1 23.2874 117.907 2 992 0 0 23.7374 117.700 3 48 988 7 5 252
1951221N10136 1951 55 WP MM NOT_NAMED 1951-08-14 12:00:00 TS 23.4000 117.550 993 tokyo main 33 30 _OO___________ -1 23.2000 117.600 2 993 0 0 0 23.6000 117.500 3 48 988 6 239
1951221N10136 1951 55 WP MM NOT_NAMED 1951-08-14 15:00:00 TS 23.2150 117.261 main 39 30 _PP___________ -1 23.1075 117.257 2 993 0 0 23.3225 117.265 3 43 989 7 234
1951221N10136 1951 55 WP MM NOT_NAMED 1951-08-14 18:00:00 TS 23.0000 116.950 993 tokyo main 39 15 _OO___________ -1 23.0000 116.900 2 993 0 0 0 23.0000 117.000 2 38 990 7 235
1951221N10136 1951 55 WP MM NOT_NAMED 1951-08-14 21:00:00 TS 22.8100 116.625 main 15 11 _PP___________ -1 22.8925 116.535 2 993 0 0 22.7274 116.715 2 38 990 7 240
1951221N10136 1951 55 WP MM NOT_NAMED 1951-08-15 00:00:00 TS 22.6500 116.300 994 tokyo main 23 22 _OO___________ -1 22.8000 116.200 2 994 0 0 0 22.5000 116.400 2 38 990 6 245
1951221N10136 1951 55 WP MM NOT_NAMED 1951-08-15 03:00:00 TS 22.5387 115.996 main 30 22 _PP___________ -1 22.7499 115.935 2 994 0 0 22.3275 116.058 2 33 991 6 250
1951221N10136 1951 55 WP MM NOT_NAMED 1951-08-15 06:00:00 TS 22.4500 115.700 995 tokyo main 24 24 _OO___________ -1 22.7000 115.700 2 995 0 0 0 22.2000 115.700 1 29 992 6 251
1951221N10136 1951 55 WP MM NOT_NAMED 1951-08-15 09:00:00 TS 22.3499 115.408 main 44 30 _PP___________ -1 22.6074 115.458 2 995 0 0 22.0924 115.358 1 29 992 6 250
1951221N10136 1951 55 WP MM NOT_NAMED 1951-08-15 12:00:00 TS 22.2500 115.100 995 tokyo main 30 33 _OO___________ -1 22.5000 115.200 2 995 0 0 0 22.0000 115.000 1 29 992 6 251
1951221N10136 1951 55 WP MM NOT_NAMED 1951-08-15 15:00:00 TS 22.1463 114.750 main 45 24 _PP___________ -1 22.3925 114.900 2 995 0 0 21.9000 114.600 1 29 992 7 253
1951221N10136 1951 55 WP MM NOT_NAMED 1951-08-15 18:00:00 TS 22.0500 114.400 995 tokyo main 24 33 _OO___________ -1 22.3000 114.600 2 995 0 0 0 21.8000 114.200 1 29 992 6 254
1951221N10136 1951 55 WP MM NOT_NAMED 1951-08-15 21:00:00 TS 21.9712 114.085 main 39 39 _PP___________ -1 22.2499 114.350 2 995 0 0 21.6925 113.820 1 26 992 6 255
1951221N10136 1951 55 WP MM NOT_NAMED 1951-08-16 00:00:00 TS 21.9000 113.800 995 tokyo main 45 35 _OO___________ -1 22.2000 114.100 2 995 0 0 0 21.6000 113.500 1 23 992 5 254
1951221N10136 1951 55 WP MM NOT_NAMED 1951-08-16 03:00:00 TS 21.8249 113.543 main 39 32 _PP___________ -1 22.1075 113.807 2 994 0 0 21.5424 113.278 1 23 992 5 252
1951221N10136 1951 55 WP MM NOT_NAMED 1951-08-16 06:00:00 TS 21.7500 113.300 994 tokyo main 32 24 _OO___________ -1 22.0000 113.500 2 994 0 0 0 21.5000 113.100 1 23 992 5 252
1951221N10136 1951 55 WP MM NOT_NAMED 1951-08-16 09:00:00 TS 21.6712 113.042 main 22 22 _PP___________ -1 21.8925 113.192 2 993 0 0 21.4500 112.893 1 23 992 5 252
1951221N10136 1951 55 WP MM NOT_NAMED 1951-08-16 12:00:00 TS 21.6000 112.800 993 tokyo main 30 22 _OO___________ -1 21.8000 112.900 2 993 0 0 0 21.4000 112.700 1 23 992 4 253
1951221N10136 1951 55 WP MM NOT_NAMED 1951-08-16 15:00:00 TS 21.5462 112.596 main 33 24 _PP___________ -1 21.7499 112.643 2 993 0 0 21.3424 112.550 1 23 992 4 255
1951221N10136 1951 55 WP MM NOT_NAMED 1951-08-16 18:00:00 TS 21.5000 112.400 993 tokyo main 24 22 _OO___________ -1 21.7000 112.400 2 993 0 0 0 21.3000 112.400 1 23 992 4 257
1951221N10136 1951 55 WP MM NOT_NAMED 1951-08-16 21:00:00 TS 21.4537 112.175 main 22 22 _PP___________ -1 21.6075 112.142 2 993 0 0 21.3000 112.208 1 23 992 4 257
1951221N10136 1951 55 WP MM NOT_NAMED 1951-08-17 00:00:00 TS 21.4000 111.950 994 tokyo main 30 22 _OO___________ -1 21.5000 111.900 2 994 0 0 0 21.3000 112.000 1 23 992 4 253
1951221N10136 1951 55 WP MM NOT_NAMED 1951-08-17 03:00:00 TS 21.3287 111.746 main 24 22 _PP___________ -1 21.4000 111.678 2 994 0 0 21.2574 111.815 1 23 992 4 248
1951221N10136 1951 55 WP MM NOT_NAMED 1951-08-17 06:00:00 TS 21.2500 111.550 994 tokyo main 22 22 _OO___________ -1 21.3000 111.500 2 994 0 0 0 21.2000 111.600 1 23 992 4 246
1951221N10136 1951 55 WP MM NOT_NAMED 1951-08-17 09:00:00 TS 21.1675 111.361 main 24 22 _PP___________ -1 21.1924 111.408 2 994 0 0 21.1425 111.315 1 23 992 4 248
1951221N10136 1951 55 WP MM NOT_NAMED 1951-08-17 12:00:00 TS 21.1000 111.150 995 tokyo main 35 30 _OO___________ -1 21.1000 111.300 2 995 0 0 0 21.1000 111.000 1 23 992 5 257
1951221N10136 1951 55 WP MM NOT_NAMED 1951-08-17 15:00:00 TS 21.0638 110.882 main 30 11 _PP___________ -1 21.0501 111.058 2 995 0 0 21.0774 110.707 1 23 993 5 264
1951221N10136 1951 55 WP MM NOT_NAMED 1951-08-17 18:00:00 TS 21.0500 110.600 995 tokyo main 11 15 _OO___________ -1 21.0000 110.800 2 995 0 0 0 21.1000 110.400 1 23 995 5 267
1951221N10136 1951 55 WP MM NOT_NAMED 1951-08-17 21:00:00 TS 21.0387 110.354 main 15 0 _PP___________ -1 20.8999 110.650 2 995 0 0 21.1775 110.058 1 21 995 5 270
1951221N10136 1951 55 WP MM NOT_NAMED 1951-08-18 00:00:00 TS 21.0500 110.100 996 tokyo main 0 0 _OO___________ -1 20.8000 110.500 2 996 0 0 0 21.3000 109.700 0 19 996 5 275
1951221N10136 1951 55 WP MM NOT_NAMED 1951-08-18 03:00:00 TS 21.0888 109.793 main 0 0 _PP___________ -1 20.7350 110.265 2 996 0 0 21.4426 109.320 0 19 996 6 280
1951221N10136 1951 55 WP MM NOT_NAMED 1951-08-18 06:00:00 TS 21.1500 109.500 996 tokyo main 23 20 _OO___________ -1 20.7000 110.000 2 996 0 0 0 21.6000 109.000 0 19 996 5 286
1951221N10136 1951 55 WP MM NOT_NAMED 1951-08-18 09:00:00 TS 21.2287 109.285 main 22 11 _PP___________ -1 20.7000 109.750 2 996 0 0 21.7574 108.820 0 19 996 4 292
1951221N10136 1951 55 WP MM NOT_NAMED 1951-08-18 12:00:00 TS 21.3000 109.100 997 tokyo main 15 15 _OO___________ -1 20.7000 109.500 2 997 0 0 0 21.9000 108.700 0 19 997 4 284
1951221N10136 1951 55 WP MM NOT_NAMED 1951-08-18 15:00:00 TS 21.3212 108.892 main 33 33 _PP___________ -1 20.6425 109.242 2 997 0 0 22.0000 108.542 0 19 997 4 278
1951221N10136 1951 55 WP MM NOT_NAMED 1951-08-18 18:00:00 TS 21.3500 108.700 997 tokyo main 22 22 _OO___________ -1 20.6000 109.000 2 997 0 0 0 22.1000 108.400 0 19 997 3 289
1951221N10136 1951 55 WP MM NOT_NAMED 1951-08-18 21:00:00 TS 21.4350 108.542 main 22 11 _PP___________ -1 20.6199 108.792 2 998 0 0 22.2500 108.292 0 19 998 3 305
1951221N10136 1951 55 WP MM NOT_NAMED 1951-08-19 00:00:00 TS 21.5500 108.400 999 tokyo main 0 0 _OO___________ -1 20.7000 108.600 2 999 0 0 0 22.4000 108.200 0 19 999 4 312
1951221N10136 1951 55 WP MM NOT_NAMED 1951-08-19 03:00:00 TS 21.6738 108.253 main 0 0 _PP___________ -1 20.8351 108.403 2 999 0 0 22.5125 108.103 0 19 999 4 312
1951221N10136 1951 55 WP MM NOT_NAMED 1951-08-19 06:00:00 TS 21.8000 108.100 1000 tokyo main 0 _OO___________ -1 21.0000 108.200 2 1000 0 0 0 22.6000 108.000 0 19 1000 4 312

Digital Typhoon Data and Search

About IBTrACS Database

This database is a web-friendly format of International Best Track Archive for Climate Stewardship (IBTrACS), a global best track data archive curated by NOAA dating back to 1842.

Updated: 2021-11-26